createdAt,value
2022-09-24T00:01:12.748Z,9.00
2022-09-24T00:04:18.861Z,8.99
2022-09-24T00:07:22.705Z,8.99
2022-09-24T00:10:25.166Z,9.03
2022-09-24T00:13:27.856Z,9.04
2022-09-24T00:16:33.906Z,9.00
2022-09-24T00:19:36.544Z,9.01
2022-09-24T00:22:40.363Z,9.05
2022-09-24T00:26:00.884Z,9.21
2022-09-24T00:29:03.788Z,9.25
2022-09-24T00:32:07.352Z,9.20
2022-09-24T00:35:10.140Z,9.23
2022-09-24T00:38:15.680Z,9.30
2022-09-24T00:41:20.012Z,9.31
2022-09-24T00:44:54.057Z,9.38
2022-09-24T00:47:57.500Z,9.26
2022-09-24T00:51:00.821Z,9.24
2022-09-24T00:54:10.049Z,9.24
2022-09-24T00:57:13.130Z,9.16
2022-09-24T01:00:16.017Z,9.21
2022-09-24T01:03:22.445Z,9.23
2022-09-24T01:06:26.199Z,9.26
2022-09-24T01:09:30.419Z,9.22
2022-09-24T01:12:41.333Z,9.26
2022-09-24T01:15:49.941Z,9.43
2022-09-24T01:19:00.762Z,9.40
2022-09-24T01:22:07.299Z,9.38
2022-09-24T01:25:20.652Z,9.38
2022-09-24T01:28:35.626Z,9.47
2022-09-24T01:31:47.023Z,9.49
2022-09-24T01:34:53.677Z,9.51
2022-09-24T01:38:01.718Z,9.51
2022-09-24T01:41:05.425Z,9.46
2022-09-24T01:44:08.006Z,9.42
2022-09-24T01:47:18.457Z,9.43
2022-09-24T01:50:21.169Z,9.44
2022-09-24T01:53:28.028Z,9.48
2022-09-24T01:56:35.645Z,9.50
2022-09-24T01:59:44.105Z,9.56
2022-09-24T02:02:52.013Z,9.56
2022-09-24T02:06:00.384Z,9.57
2022-09-24T02:09:03.238Z,9.58
2022-09-24T02:12:10.923Z,9.56
2022-09-24T02:15:17.840Z,9.50
2022-09-24T02:18:28.518Z,9.45
2022-09-24T02:21:34.369Z,9.41
2022-09-24T02:24:44.661Z,9.44
2022-09-24T02:27:47.609Z,9.47
2022-09-24T02:30:57.159Z,9.52
2022-09-24T02:34:24.821Z,9.55
2022-09-24T02:37:27.285Z,9.57
2022-09-24T02:40:30.035Z,9.54
2022-09-24T02:43:35.745Z,9.48
2022-09-24T02:46:42.045Z,9.46
2022-09-24T02:49:45.879Z,9.49
2022-09-24T02:52:48.332Z,9.49
2022-09-24T02:55:50.794Z,9.53
2022-09-24T02:58:53.404Z,9.59
2022-09-24T03:01:56.035Z,9.63
2022-09-24T03:04:59.937Z,9.67
2022-09-24T03:08:02.908Z,9.69
2022-09-24T03:11:05.609Z,9.68
2022-09-24T03:14:08.344Z,9.66
2022-09-24T03:17:10.843Z,9.65
2022-09-24T03:20:14.927Z,9.66
2022-09-24T03:23:19.225Z,9.65
2022-09-24T03:26:21.892Z,9.69
2022-09-24T03:29:44.388Z,9.68
2022-09-24T03:32:47.876Z,9.62
2022-09-24T03:35:56.540Z,9.58
2022-09-24T03:38:59.061Z,9.54
2022-09-24T03:42:01.534Z,9.58
2022-09-24T03:45:04.206Z,9.59
2022-09-24T03:48:06.905Z,9.63
2022-09-24T03:51:12.059Z,9.66
2022-09-24T03:54:14.508Z,9.67
2022-09-24T03:57:17.120Z,9.67
2022-09-24T04:00:19.624Z,9.67
2022-09-24T04:03:22.600Z,9.60
2022-09-24T04:06:27.054Z,9.61
2022-09-24T04:09:29.600Z,9.53
2022-09-24T04:12:32.067Z,9.52
2022-09-24T04:15:34.550Z,9.60
2022-09-24T04:18:39.242Z,9.60
2022-09-24T04:21:43.359Z,9.58
2022-09-24T04:24:46.135Z,9.60
2022-09-24T04:27:53.444Z,9.68
2022-09-24T04:30:56.025Z,9.67
2022-09-24T04:33:58.838Z,9.70
2022-09-24T04:37:02.680Z,9.69
2022-09-24T04:40:07.204Z,9.70
2022-09-24T04:43:09.753Z,9.67
2022-09-24T04:46:12.923Z,9.64
2022-09-24T04:49:15.585Z,9.65
2022-09-24T04:52:19.422Z,9.63
2022-09-24T04:55:22.278Z,9.59
2022-09-24T04:58:24.755Z,9.60
2022-09-24T05:01:27.646Z,9.58
2022-09-24T05:04:30.268Z,9.52
2022-09-24T05:07:34.096Z,9.42
2022-09-24T05:10:36.568Z,9.41
2022-09-24T05:13:39.029Z,9.40
2022-09-24T05:16:41.543Z,9.40
2022-09-24T05:19:44.125Z,9.46
2022-09-24T05:22:49.944Z,9.53
2022-09-24T05:26:10.095Z,9.55
2022-09-24T05:29:13.136Z,9.64
2022-09-24T05:32:18.391Z,9.71
2022-09-24T05:35:21.381Z,9.77
2022-09-24T05:38:25.466Z,9.80
2022-09-24T05:41:27.960Z,9.85
2022-09-24T05:44:31.143Z,9.94
2022-09-24T05:47:33.618Z,10.01
2022-09-24T05:50:36.136Z,10.07
2022-09-24T05:53:39.930Z,10.21
2022-09-24T05:56:42.961Z,10.29
2022-09-24T05:59:45.427Z,10.41
2022-09-24T06:02:48.023Z,10.51
2022-09-24T06:05:51.761Z,10.69
2022-09-24T06:08:56.186Z,10.84
2022-09-24T06:11:58.869Z,10.88
2022-09-24T06:15:01.482Z,11.00
2022-09-24T06:18:03.971Z,11.08
2022-09-24T06:21:09.193Z,11.14
2022-09-24T06:24:13.016Z,11.18
2022-09-24T06:27:15.471Z,11.15
2022-09-24T06:30:17.937Z,11.18
2022-09-24T06:33:22.115Z,11.24
2022-09-24T06:36:24.577Z,11.34
2022-09-24T06:39:28.463Z,11.37
2022-09-24T06:42:31.029Z,11.45
2022-09-24T06:45:33.872Z,11.58
2022-09-24T06:48:38.173Z,11.69
2022-09-24T06:51:40.837Z,11.87
2022-09-24T06:54:44.633Z,12.01
2022-09-24T06:57:47.133Z,12.18
2022-09-24T07:00:54.431Z,12.27
2022-09-24T07:03:56.997Z,12.45
2022-09-24T07:07:17.112Z,12.35
2022-09-24T07:10:20.931Z,12.34
2022-09-24T07:13:23.622Z,12.40
2022-09-24T07:16:26.119Z,12.45
2022-09-24T07:19:28.689Z,12.54
2022-09-24T07:22:31.468Z,12.62
2022-09-24T07:25:35.826Z,12.76
2022-09-24T07:28:38.289Z,12.86
2022-09-24T07:31:40.789Z,12.94
2022-09-24T07:34:43.283Z,13.19
2022-09-24T07:37:45.761Z,13.52
2022-09-24T07:40:49.768Z,13.73
2022-09-24T07:43:52.270Z,13.87
2022-09-24T07:46:55.335Z,14.15
2022-09-24T07:49:57.805Z,14.50
2022-09-24T07:53:01.157Z,14.75
2022-09-24T07:56:07.636Z,14.44
2022-09-24T07:59:11.253Z,14.32
2022-09-24T08:02:17.669Z,14.42
2022-09-24T08:05:20.485Z,14.59
2022-09-24T08:08:25.234Z,14.78
2022-09-24T08:11:29.919Z,14.76
2022-09-24T08:14:32.530Z,14.94
2022-09-24T08:17:35.039Z,15.17
2022-09-24T08:20:38.884Z,15.42
2022-09-24T08:23:41.457Z,15.43
2022-09-24T08:26:45.265Z,15.75
2022-09-24T08:29:48.319Z,15.86
2022-09-24T08:32:50.843Z,15.78
2022-09-24T08:35:53.361Z,15.78
2022-09-24T08:38:56.108Z,15.89
2022-09-24T08:42:04.537Z,16.00
2022-09-24T08:45:27.671Z,16.08
2022-09-24T08:48:35.360Z,16.11
2022-09-24T08:51:46.157Z,15.93
2022-09-24T08:54:52.093Z,16.10
2022-09-24T08:58:04.231Z,16.21
2022-09-24T09:01:17.200Z,16.34
2022-09-24T09:04:27.474Z,16.27
2022-09-24T09:07:33.397Z,16.39
2022-09-24T09:10:39.792Z,16.58
2022-09-24T09:13:50.761Z,16.84
2022-09-24T09:16:57.066Z,17.13
2022-09-24T09:20:02.527Z,17.17
2022-09-24T09:23:14.463Z,17.21
2022-09-24T09:26:18.332Z,17.42
2022-09-24T09:29:25.489Z,17.27
2022-09-24T09:32:45.327Z,17.23
2022-09-24T09:35:54.079Z,16.98
2022-09-24T09:39:04.560Z,17.19
2022-09-24T09:42:21.958Z,17.14
2022-09-24T09:45:33.471Z,17.00
2022-09-24T09:48:45.687Z,17.02
2022-09-24T09:51:49.259Z,17.04
2022-09-24T09:54:52.111Z,17.00
2022-09-24T09:58:02.116Z,16.97
2022-09-24T10:01:08.334Z,17.24
2022-09-24T10:04:28.261Z,17.15
2022-09-24T10:07:31.991Z,17.31
2022-09-24T10:10:34.456Z,17.30
2022-09-24T10:13:37.061Z,17.48
2022-09-24T10:16:43.620Z,17.50
2022-09-24T10:19:47.881Z,17.58
2022-09-24T10:22:53.471Z,17.45
2022-09-24T10:26:00.451Z,17.49
2022-09-24T10:29:21.139Z,17.56
2022-09-24T10:32:29.497Z,17.71
2022-09-24T10:35:35.641Z,17.77
2022-09-24T10:38:38.198Z,18.03
2022-09-24T10:41:47.541Z,18.31
2022-09-24T10:44:52.836Z,18.35
2022-09-24T10:48:08.169Z,18.42
2022-09-24T10:51:25.336Z,18.27
2022-09-24T10:54:49.891Z,18.13
2022-09-24T10:57:59.743Z,18.03
2022-09-24T11:01:15.396Z,18.12
2022-09-24T11:04:39.842Z,18.14
2022-09-24T11:08:05.365Z,18.14
2022-09-24T11:11:19.466Z,18.05
2022-09-24T11:14:38.581Z,17.86
2022-09-24T11:17:50.615Z,17.62
2022-09-24T11:21:04.157Z,17.52
2022-09-24T11:24:32.813Z,17.57
2022-09-24T11:27:52.521Z,17.58
2022-09-24T11:31:07.626Z,17.44
2022-09-24T11:34:29.357Z,17.29
2022-09-24T11:37:48.055Z,17.33
2022-09-24T11:41:10.250Z,17.26
2022-09-24T11:44:29.430Z,17.32
2022-09-24T11:47:45.088Z,17.27
2022-09-24T11:51:00.712Z,17.13
2022-09-24T11:54:13.706Z,17.32
2022-09-24T11:57:22.002Z,17.40
2022-09-24T12:00:29.624Z,17.49
2022-09-24T12:03:42.102Z,17.57
2022-09-24T12:06:54.195Z,17.57
2022-09-24T12:10:01.922Z,17.72
2022-09-24T12:13:13.811Z,17.65
2022-09-24T12:16:20.138Z,17.51
2022-09-24T12:19:27.784Z,17.54
2022-09-24T12:22:34.014Z,17.80
2022-09-24T12:25:45.080Z,18.04
2022-09-24T12:29:12.581Z,18.38
2022-09-24T12:32:38.626Z,18.54
2022-09-24T12:35:53.999Z,18.33
2022-09-24T12:39:03.414Z,18.61
2022-09-24T12:42:09.649Z,18.56
2022-09-24T12:45:16.869Z,18.66
2022-09-24T12:48:26.832Z,18.96
2022-09-24T12:51:37.868Z,18.93
2022-09-24T12:54:40.432Z,18.73
2022-09-24T12:57:52.063Z,18.74
2022-09-24T13:01:07.284Z,18.68
2022-09-24T13:04:30.198Z,18.57
2022-09-24T13:07:36.263Z,18.87
2022-09-24T13:10:38.739Z,19.16
2022-09-24T13:13:44.842Z,19.37
2022-09-24T13:16:50.023Z,19.31
2022-09-24T13:19:59.261Z,18.94
2022-09-24T13:23:14.481Z,18.50
2022-09-24T13:26:33.734Z,18.33
2022-09-24T13:29:41.416Z,18.11
2022-09-24T13:32:50.067Z,17.97
2022-09-24T13:36:05.737Z,18.03
2022-09-24T13:39:16.229Z,18.12
2022-09-24T13:42:26.410Z,18.18
2022-09-24T13:45:31.452Z,18.05
2022-09-24T13:48:38.247Z,17.97
2022-09-24T13:51:42.431Z,17.92
2022-09-24T13:54:52.059Z,17.76
2022-09-24T13:57:54.585Z,17.76
2022-09-24T14:01:01.453Z,17.71
2022-09-24T14:04:06.372Z,17.64
2022-09-24T14:07:09.475Z,17.57
2022-09-24T14:10:15.299Z,17.41
2022-09-24T14:13:21.770Z,17.42
2022-09-24T14:16:26.508Z,17.43
2022-09-24T14:19:29.100Z,17.25
2022-09-24T14:22:37.540Z,17.17
2022-09-24T14:25:40.428Z,17.18
2022-09-24T14:28:43.320Z,17.25
2022-09-24T14:31:50.483Z,17.24
2022-09-24T14:34:54.827Z,17.22
2022-09-24T14:38:01.586Z,17.28
2022-09-24T14:41:08.892Z,17.07
2022-09-24T14:44:24.192Z,16.98
2022-09-24T14:47:30.045Z,16.95
2022-09-24T14:50:38.615Z,16.90
2022-09-24T14:53:41.095Z,16.88
2022-09-24T14:56:43.613Z,16.74
2022-09-24T14:59:47.668Z,16.71
2022-09-24T15:02:57.156Z,16.58
2022-09-24T15:06:08.999Z,16.53
2022-09-24T15:09:22.008Z,16.40
2022-09-24T15:12:30.859Z,16.29
2022-09-24T15:15:33.418Z,16.19
2022-09-24T15:18:37.256Z,16.09
2022-09-24T15:21:39.836Z,16.04
2022-09-24T15:24:42.310Z,16.00
2022-09-24T15:27:45.936Z,16.00
2022-09-24T15:30:48.500Z,15.97
2022-09-24T15:33:52.515Z,16.01
2022-09-24T15:36:59.113Z,16.01
2022-09-24T15:40:16.615Z,15.92
2022-09-24T15:43:24.210Z,15.85
2022-09-24T15:46:27.310Z,15.80
2022-09-24T15:49:31.165Z,15.72
2022-09-24T15:52:34.719Z,15.53
2022-09-24T15:55:37.609Z,15.42
2022-09-24T15:58:40.117Z,15.33
2022-09-24T16:01:43.052Z,15.27
2022-09-24T16:04:46.882Z,15.14
2022-09-24T16:07:49.385Z,15.07
2022-09-24T16:10:52.264Z,15.00
2022-09-24T16:13:54.731Z,14.90
2022-09-24T16:16:57.278Z,14.86
2022-09-24T16:20:01.196Z,14.77
2022-09-24T16:23:03.661Z,14.67
2022-09-24T16:26:06.560Z,14.61
2022-09-24T16:29:11.890Z,14.54
2022-09-24T16:32:14.825Z,14.48
2022-09-24T16:35:19.337Z,14.43
2022-09-24T16:38:23.116Z,14.40
2022-09-24T16:41:25.903Z,14.29
2022-09-24T16:44:28.391Z,14.24
2022-09-24T16:47:30.923Z,14.20
2022-09-24T16:50:35.289Z,14.21
2022-09-24T16:53:38.423Z,14.11
2022-09-24T16:56:41.158Z,14.11
2022-09-24T16:59:43.623Z,14.03
2022-09-24T17:02:46.239Z,14.02
2022-09-24T17:05:50.038Z,14.01
2022-09-24T17:09:10.314Z,13.97
2022-09-24T17:12:13.099Z,13.93
2022-09-24T17:15:18.917Z,14.02
2022-09-24T17:18:21.719Z,13.99
2022-09-24T17:21:25.692Z,13.98
2022-09-24T17:24:28.425Z,13.87
2022-09-24T17:27:32.038Z,13.75
2022-09-24T17:30:34.483Z,13.62
2022-09-24T17:33:44.587Z,13.60
2022-09-24T17:36:48.752Z,13.69
2022-09-24T17:39:51.417Z,13.68
2022-09-24T17:42:54.080Z,13.67
2022-09-24T17:45:57.462Z,13.64
2022-09-24T17:49:02.712Z,13.57
2022-09-24T17:52:06.556Z,13.50
2022-09-24T17:55:11.763Z,13.42
2022-09-24T17:58:14.249Z,13.37
2022-09-24T18:01:18.897Z,13.37
2022-09-24T18:04:22.504Z,13.28
2022-09-24T18:07:26.348Z,13.24
2022-09-24T18:10:28.832Z,13.18
2022-09-24T18:13:34.822Z,13.17
2022-09-24T18:16:37.297Z,13.14
2022-09-24T18:19:39.776Z,13.11
2022-09-24T18:22:43.695Z,13.10
2022-09-24T18:25:46.158Z,13.21
2022-09-24T18:28:50.810Z,13.21
2022-09-24T18:31:53.308Z,13.20
2022-09-24T18:34:55.787Z,13.17
2022-09-24T18:37:59.663Z,13.08
2022-09-24T18:41:07.092Z,12.98
2022-09-24T18:44:10.492Z,12.91
2022-09-24T18:47:14.742Z,12.96
2022-09-24T18:50:17.413Z,12.98
2022-09-24T18:53:21.222Z,13.01
2022-09-24T18:56:25.078Z,13.02
2022-09-24T18:59:29.112Z,12.97
2022-09-24T19:02:31.716Z,12.96
2022-09-24T19:05:34.950Z,12.91
2022-09-24T19:08:38.750Z,12.91
2022-09-24T19:11:42.150Z,12.84
2022-09-24T19:14:44.741Z,12.85
2022-09-24T19:17:48.924Z,12.84
2022-09-24T19:20:51.388Z,12.82
2022-09-24T19:23:57.353Z,12.83
2022-09-24T19:26:59.837Z,12.79
2022-09-24T19:30:02.319Z,12.78
2022-09-24T19:33:04.990Z,12.76
2022-09-24T19:36:08.135Z,12.76
2022-09-24T19:39:14.023Z,12.72
2022-09-24T19:42:16.527Z,12.68
2022-09-24T19:45:19.014Z,12.61
2022-09-24T19:48:21.508Z,12.54
2022-09-24T19:51:25.757Z,12.69
2022-09-24T19:54:29.749Z,12.68
2022-09-24T19:57:34.960Z,12.62
2022-09-24T20:00:38.776Z,12.62
2022-09-24T20:03:42.867Z,12.61
2022-09-24T20:06:45.488Z,12.57
2022-09-24T20:09:49.272Z,12.57
2022-09-24T20:12:54.422Z,12.55
2022-09-24T20:15:59.258Z,12.50
2022-09-24T20:19:03.229Z,12.48
2022-09-24T20:22:08.938Z,12.40
2022-09-24T20:25:13.655Z,12.41
2022-09-24T20:28:16.505Z,12.37
2022-09-24T20:31:20.838Z,12.35
2022-09-24T20:34:28.413Z,12.37
2022-09-24T20:37:30.916Z,12.41
2022-09-24T20:40:36.534Z,12.38
2022-09-24T20:43:41.680Z,12.34
2022-09-24T20:46:44.206Z,12.34
2022-09-24T20:49:46.849Z,12.34
2022-09-24T20:52:49.355Z,12.29
2022-09-24T20:55:55.878Z,12.35
2022-09-24T20:58:58.714Z,12.33
2022-09-24T21:02:01.361Z,12.34
2022-09-24T21:05:03.846Z,12.35
2022-09-24T21:08:08.931Z,12.34
2022-09-24T21:11:16.059Z,12.33
2022-09-24T21:14:19.281Z,12.30
2022-09-24T21:17:22.006Z,12.23
2022-09-24T21:20:24.587Z,12.17
2022-09-24T21:23:27.109Z,12.17
2022-09-24T21:26:32.114Z,12.22
2022-09-24T21:29:34.586Z,12.16
2022-09-24T21:32:38.741Z,12.14
2022-09-24T21:35:41.217Z,12.14
2022-09-24T21:38:43.816Z,12.14
2022-09-24T21:41:49.967Z,12.20
2022-09-24T21:44:53.199Z,12.18
2022-09-24T21:47:55.692Z,12.19
2022-09-24T21:51:03.658Z,12.26
2022-09-24T21:54:08.527Z,12.25
2022-09-24T21:57:12.334Z,12.24
2022-09-24T22:00:15.626Z,12.24
2022-09-24T22:03:20.681Z,12.24
2022-09-24T22:06:25.037Z,12.22
2022-09-24T22:09:27.646Z,12.19
2022-09-24T22:12:31.978Z,12.24
2022-09-24T22:15:34.598Z,12.29
2022-09-24T22:18:37.689Z,12.28
2022-09-24T22:21:40.546Z,12.28
2022-09-24T22:24:43.021Z,12.26
2022-09-24T22:27:46.830Z,12.25
2022-09-24T22:30:49.326Z,12.20
2022-09-24T22:34:10.119Z,12.08
2022-09-24T22:37:12.708Z,12.18
2022-09-24T22:40:15.334Z,12.08
2022-09-24T22:43:19.418Z,12.03
2022-09-24T22:46:26.926Z,12.02
2022-09-24T22:49:29.686Z,12.01
2022-09-24T22:52:32.211Z,12.00
2022-09-24T22:55:34.665Z,11.99
2022-09-24T22:58:39.949Z,11.98
2022-09-24T23:01:44.391Z,11.96
2022-09-24T23:04:47.114Z,11.90
2022-09-24T23:07:49.693Z,11.91
2022-09-24T23:10:52.190Z,11.80
2022-09-24T23:13:57.510Z,11.84
2022-09-24T23:17:00.047Z,11.76
2022-09-24T23:20:03.065Z,11.77
2022-09-24T23:23:05.528Z,11.75
2022-09-24T23:26:16.291Z,11.79
2022-09-24T23:29:20.675Z,11.78
2022-09-24T23:32:23.145Z,11.78
2022-09-24T23:35:25.773Z,11.76
2022-09-24T23:38:28.577Z,11.75
2022-09-24T23:41:31.801Z,11.70
2022-09-24T23:44:36.151Z,11.73
2022-09-24T23:47:38.637Z,11.75
2022-09-24T23:50:41.346Z,11.79
2022-09-24T23:53:43.833Z,11.79
2022-09-24T23:56:46.329Z,11.77
2022-09-24T23:59:51.443Z,11.72
